Covington, Virginia
Current Conditions -  °F | °C
As of 10:55 PM on Friday 24 Oct 2014 (Local Time) from KHSP Reporting Station
Clear Clear  
Wind Chill: 37°   Ceiling: Unl
Heat Index: 44°   Visibility: 10mi
Dew Point: 33°   Wind: 13mph
Humidity: 66%   Direction: 290°WNW
Pressure: 30.03"   Gusts: NA
Location:  37.79°N, 79.99°W
Report Text: KHSP 250255Z AUTO 29011KT 10SM CLR 07/01 A3003 RMK AO2 T00650005
Loading
Personal Weather Stations






























Interactive Weather Map
Tropical Storm Tracking
New forecast layout! Learn more

10-Day Weather Forecast

Advertisements
Track Severe Weather on mobile